sensor_id;sensor_type;location;lat;lon;timestamp;temperature;humidity
39957;DHT22;48483;44.640;7.494;2023-05-14T00:01:09;13.50;99.90
39957;DHT22;48483;44.640;7.494;2023-05-14T00:03:35;13.60;99.90
39957;DHT22;48483;44.640;7.494;2023-05-14T00:06:02;13.50;99.90
39957;DHT22;48483;44.640;7.494;2023-05-14T00:08:29;13.50;99.90
39957;DHT22;48483;44.640;7.494;2023-05-14T00:10:57;13.50;99.90
39957;DHT22;48483;44.640;7.494;2023-05-14T00:13:24;13.60;99.90
39957;DHT22;48483;44.640;7.494;2023-05-14T00:15:51;13.50;99.90
39957;DHT22;48483;44.640;7.494;2023-05-14T00:18:17;13.50;99.90
39957;DHT22;48483;44.640;7.494;2023-05-14T00:20:43;13.50;99.90
39957;DHT22;48483;44.640;7.494;2023-05-14T00:23:10;13.50;99.90
39957;DHT22;48483;44.640;7.494;2023-05-14T00:25:37;13.50;99.90
39957;DHT22;48483;44.640;7.494;2023-05-14T00:28:05;13.50;99.90
39957;DHT22;48483;44.640;7.494;2023-05-14T00:30:32;13.40;99.90
39957;DHT22;48483;44.640;7.494;2023-05-14T00:32:58;13.40;99.90
39957;DHT22;48483;44.640;7.494;2023-05-14T00:35:25;13.50;99.90
39957;DHT22;48483;44.640;7.494;2023-05-14T00:37:51;13.40;99.90
39957;DHT22;48483;44.640;7.494;2023-05-14T00:40:19;13.40;99.90
39957;DHT22;48483;44.640;7.494;2023-05-14T00:42:45;13.40;99.90
39957;DHT22;48483;44.640;7.494;2023-05-14T00:45:13;13.40;99.90
39957;DHT22;48483;44.640;7.494;2023-05-14T00:47:40;13.40;99.90
39957;DHT22;48483;44.640;7.494;2023-05-14T00:50:07;13.40;99.90
39957;DHT22;48483;44.640;7.494;2023-05-14T00:52:35;13.30;99.90
39957;DHT22;48483;44.640;7.494;2023-05-14T00:55:03;13.40;99.90
39957;DHT22;48483;44.640;7.494;2023-05-14T00:57:31;13.40;99.90
39957;DHT22;48483;44.640;7.494;2023-05-14T00:59:58;13.40;99.90
39957;DHT22;48483;44.640;7.494;2023-05-14T01:02:26;13.40;99.90
39957;DHT22;48483;44.640;7.494;2023-05-14T01:04:53;13.40;99.90
39957;DHT22;48483;44.640;7.494;2023-05-14T01:07:24;13.30;99.90
39957;DHT22;48483;44.640;7.494;2023-05-14T01:09:55;13.30;99.90
39957;DHT22;48483;44.640;7.494;2023-05-14T01:12:32;13.30;99.90
39957;DHT22;48483;44.640;7.494;2023-05-14T01:15:03;13.20;99.90
39957;DHT22;48483;44.640;7.494;2023-05-14T01:17:33;13.20;99.90
39957;DHT22;48483;44.640;7.494;2023-05-14T01:20:03;13.20;99.90
39957;DHT22;48483;44.640;7.494;2023-05-14T01:22:31;13.10;99.90
39957;DHT22;48483;44.640;7.494;2023-05-14T01:24:58;13.20;99.90
39957;DHT22;48483;44.640;7.494;2023-05-14T01:27:30;13.20;99.90
39957;DHT22;48483;44.640;7.494;2023-05-14T01:30:07;13.20;99.90
39957;DHT22;48483;44.640;7.494;2023-05-14T01:32:36;13.20;99.90
39957;DHT22;48483;44.640;7.494;2023-05-14T01:35:06;13.10;99.90
39957;DHT22;48483;44.640;7.494;2023-05-14T01:37:35;13.10;99.90
39957;DHT22;48483;44.640;7.494;2023-05-14T01:40:04;13.10;99.90
39957;DHT22;48483;44.640;7.494;2023-05-14T01:42:32;13.10;99.90
39957;DHT22;48483;44.640;7.494;2023-05-14T01:44:59;13.10;99.90
39957;DHT22;48483;44.640;7.494;2023-05-14T01:47:26;13.00;99.90
39957;DHT22;48483;44.640;7.494;2023-05-14T01:49:52;13.00;99.90
39957;DHT22;48483;44.640;7.494;2023-05-14T01:52:19;13.00;99.90
39957;DHT22;48483;44.640;7.494;2023-05-14T01:54:47;13.00;99.90
39957;DHT22;48483;44.640;7.494;2023-05-14T01:57:14;13.00;99.90
39957;DHT22;48483;44.640;7.494;2023-05-14T01:59:40;13.00;99.90
39957;DHT22;48483;44.640;7.494;2023-05-14T02:02:07;13.00;99.90
39957;DHT22;48483;44.640;7.494;2023-05-14T02:04:35;13.00;99.90
39957;DHT22;48483;44.640;7.494;2023-05-14T02:07:01;12.90;99.90
39957;DHT22;48483;44.640;7.494;2023-05-14T02:09:28;12.90;99.90
39957;DHT22;48483;44.640;7.494;2023-05-14T02:11:57;12.90;99.90
39957;DHT22;48483;44.640;7.494;2023-05-14T02:14:23;12.90;99.90
39957;DHT22;48483;44.640;7.494;2023-05-14T02:16:50;12.80;99.90
39957;DHT22;48483;44.640;7.494;2023-05-14T02:19:16;12.80;99.90
39957;DHT22;48483;44.640;7.494;2023-05-14T02:21:43;12.80;99.90
39957;DHT22;48483;44.640;7.494;2023-05-14T02:24:09;12.80;99.90
39957;DHT22;48483;44.640;7.494;2023-05-14T02:26:36;12.80;99.90
39957;DHT22;48483;44.640;7.494;2023-05-14T02:29:04;12.70;99.90
39957;DHT22;48483;44.640;7.494;2023-05-14T02:31:30;12.70;99.90
39957;DHT22;48483;44.640;7.494;2023-05-14T02:33:57;12.70;99.90
39957;DHT22;48483;44.640;7.494;2023-05-14T02:36:23;12.70;99.90
39957;DHT22;48483;44.640;7.494;2023-05-14T02:38:50;12.70;99.90
39957;DHT22;48483;44.640;7.494;2023-05-14T02:41:17;12.70;99.90
39957;DHT22;48483;44.640;7.494;2023-05-14T02:43:43;12.80;99.90
39957;DHT22;48483;44.640;7.494;2023-05-14T02:46:11;12.80;99.90
39957;DHT22;48483;44.640;7.494;2023-05-14T02:48:37;12.80;99.90
39957;DHT22;48483;44.640;7.494;2023-05-14T02:51:06;12.80;99.90
39957;DHT22;48483;44.640;7.494;2023-05-14T02:53:33;12.70;99.90
39957;DHT22;48483;44.640;7.494;2023-05-14T02:55:59;12.70;99.90
39957;DHT22;48483;44.640;7.494;2023-05-14T02:58:26;12.60;99.90
39957;DHT22;48483;44.640;7.494;2023-05-14T03:00:52;12.70;99.90
39957;DHT22;48483;44.640;7.494;2023-05-14T03:03:20;12.70;99.90
39957;DHT22;48483;44.640;7.494;2023-05-14T03:05:47;12.60;99.90
39957;DHT22;48483;44.640;7.494;2023-05-14T03:08:13;12.70;99.90
39957;DHT22;48483;44.640;7.494;2023-05-14T03:10:40;12.70;99.90
39957;DHT22;48483;44.640;7.494;2023-05-14T03:13:07;12.70;99.90
39957;DHT22;48483;44.640;7.494;2023-05-14T03:15:33;12.60;99.90
39957;DHT22;48483;44.640;7.494;2023-05-14T03:18:01;12.60;99.90
39957;DHT22;48483;44.640;7.494;2023-05-14T03:20:28;12.60;99.90
39957;DHT22;48483;44.640;7.494;2023-05-14T03:22:55;12.50;99.90
39957;DHT22;48483;44.640;7.494;2023-05-14T03:25:22;12.50;99.90
39957;DHT22;48483;44.640;7.494;2023-05-14T03:27:48;12.50;99.90
39957;DHT22;48483;44.640;7.494;2023-05-14T03:30:15;12.50;99.90
39957;DHT22;48483;44.640;7.494;2023-05-14T03:32:41;12.60;99.90
39957;DHT22;48483;44.640;7.494;2023-05-14T03:35:08;12.50;99.90
39957;DHT22;48483;44.640;7.494;2023-05-14T03:37:36;12.50;99.90
39957;DHT22;48483;44.640;7.494;2023-05-14T03:40:03;12.50;99.90
39957;DHT22;48483;44.640;7.494;2023-05-14T03:42:30;12.40;99.90
39957;DHT22;48483;44.640;7.494;2023-05-14T03:44:56;12.40;99.90
39957;DHT22;48483;44.640;7.494;2023-05-14T03:47:23;12.50;99.90
39957;DHT22;48483;44.640;7.494;2023-05-14T03:49:50;12.40;99.90
39957;DHT22;48483;44.640;7.494;2023-05-14T03:52:16;12.40;99.90
39957;DHT22;48483;44.640;7.494;2023-05-14T03:54:45;12.40;99.90
39957;DHT22;48483;44.640;7.494;2023-05-14T03:57:12;12.40;99.90
39957;DHT22;48483;44.640;7.494;2023-05-14T03:59:38;12.40;99.90
39957;DHT22;48483;44.640;7.494;2023-05-14T04:02:05;12.40;99.90
39957;DHT22;48483;44.640;7.494;2023-05-14T04:04:32;12.50;99.90
39957;DHT22;48483;44.640;7.494;2023-05-14T04:06:59;12.50;99.90
39957;DHT22;48483;44.640;7.494;2023-05-14T04:09:28;12.50;99.90
39957;DHT22;48483;44.640;7.494;2023-05-14T04:11:56;12.50;99.90
39957;DHT22;48483;44.640;7.494;2023-05-14T04:14:22;12.50;99.90
39957;DHT22;48483;44.640;7.494;2023-05-14T04:16:49;12.50;99.90
39957;DHT22;48483;44.640;7.494;2023-05-14T04:19:15;12.50;99.90
39957;DHT22;48483;44.640;7.494;2023-05-14T04:21:42;12.50;99.90
39957;DHT22;48483;44.640;7.494;2023-05-14T04:24:08;12.50;99.90
39957;DHT22;48483;44.640;7.494;2023-05-14T04:26:35;12.50;99.90
39957;DHT22;48483;44.640;7.494;2023-05-14T04:29:03;12.50;99.90
39957;DHT22;48483;44.640;7.494;2023-05-14T04:31:29;12.50;99.90
39957;DHT22;48483;44.640;7.494;2023-05-14T04:33:56;12.50;99.90
39957;DHT22;48483;44.640;7.494;2023-05-14T04:36:23;12.40;99.90
39957;DHT22;48483;44.640;7.494;2023-05-14T04:38:50;12.40;99.90
39957;DHT22;48483;44.640;7.494;2023-05-14T04:41:17;12.40;99.90
39957;DHT22;48483;44.640;7.494;2023-05-14T04:43:43;12.40;99.90
39957;DHT22;48483;44.640;7.494;2023-05-14T04:46:11;12.40;99.90
39957;DHT22;48483;44.640;7.494;2023-05-14T04:48:39;12.40;99.90
39957;DHT22;48483;44.640;7.494;2023-05-14T04:51:05;12.40;99.90
39957;DHT22;48483;44.640;7.494;2023-05-14T04:53:32;12.40;99.90
39957;DHT22;48483;44.640;7.494;2023-05-14T04:55:58;12.50;99.90
39957;DHT22;48483;44.640;7.494;2023-05-14T04:58:24;12.50;99.90
39957;DHT22;48483;44.640;7.494;2023-05-14T05:00:54;12.40;99.90
39957;DHT22;48483;44.640;7.494;2023-05-14T05:03:21;12.40;99.90
39957;DHT22;48483;44.640;7.494;2023-05-14T05:05:48;12.50;99.90
39957;DHT22;48483;44.640;7.494;2023-05-14T05:08:14;12.50;99.90
39957;DHT22;48483;44.640;7.494;2023-05-14T05:10:41;12.40;99.90
39957;DHT22;48483;44.640;7.494;2023-05-14T05:13:07;12.40;99.90
39957;DHT22;48483;44.640;7.494;2023-05-14T05:15:34;12.50;99.90
39957;DHT22;48483;44.640;7.494;2023-05-14T05:18:00;12.50;99.90
39957;DHT22;48483;44.640;7.494;2023-05-14T05:20:28;12.40;99.90
39957;DHT22;48483;44.640;7.494;2023-05-14T05:22:55;12.40;99.90
39957;DHT22;48483;44.640;7.494;2023-05-14T05:25:22;12.40;99.90
39957;DHT22;48483;44.640;7.494;2023-05-14T05:27:48;12.40;99.90
39957;DHT22;48483;44.640;7.494;2023-05-14T05:30:15;12.40;99.90
39957;DHT22;48483;44.640;7.494;2023-05-14T05:32:42;12.40;99.90
39957;DHT22;48483;44.640;7.494;2023-05-14T05:35:09;12.40;99.90
39957;DHT22;48483;44.640;7.494;2023-05-14T05:37:36;12.40;99.90
39957;DHT22;48483;44.640;7.494;2023-05-14T05:40:04;12.40;99.90
39957;DHT22;48483;44.640;7.494;2023-05-14T05:42:31;12.40;99.90
39957;DHT22;48483;44.640;7.494;2023-05-14T05:44:58;12.40;99.90
39957;DHT22;48483;44.640;7.494;2023-05-14T05:47:24;12.40;99.90
39957;DHT22;48483;44.640;7.494;2023-05-14T05:49:50;12.50;99.90
39957;DHT22;48483;44.640;7.494;2023-05-14T05:52:17;12.50;99.90
39957;DHT22;48483;44.640;7.494;2023-05-14T05:54:45;12.50;99.90
39957;DHT22;48483;44.640;7.494;2023-05-14T05:57:11;12.50;99.90
39957;DHT22;48483;44.640;7.494;2023-05-14T05:59:38;12.50;99.90
39957;DHT22;48483;44.640;7.494;2023-05-14T06:02:05;12.50;99.90
39957;DHT22;48483;44.640;7.494;2023-05-14T06:04:31;12.50;99.90
39957;DHT22;48483;44.640;7.494;2023-05-14T06:06:58;12.50;99.90
39957;DHT22;48483;44.640;7.494;2023-05-14T06:09:24;12.60;99.90
39957;DHT22;48483;44.640;7.494;2023-05-14T06:11:52;12.50;99.90
39957;DHT22;48483;44.640;7.494;2023-05-14T06:14:19;12.50;99.90
39957;DHT22;48483;44.640;7.494;2023-05-14T06:16:45;12.50;99.90
39957;DHT22;48483;44.640;7.494;2023-05-14T06:19:12;12.50;99.90
39957;DHT22;48483;44.640;7.494;2023-05-14T06:21:38;12.60;99.90
39957;DHT22;48483;44.640;7.494;2023-05-14T06:24:05;12.50;99.90
39957;DHT22;48483;44.640;7.494;2023-05-14T06:26:32;12.50;99.90
39957;DHT22;48483;44.640;7.494;2023-05-14T06:29:00;12.60;99.90
39957;DHT22;48483;44.640;7.494;2023-05-14T06:31:26;12.50;99.90
39957;DHT22;48483;44.640;7.494;2023-05-14T06:33:53;12.60;99.90
39957;DHT22;48483;44.640;7.494;2023-05-14T06:36:19;12.60;99.90
39957;DHT22;48483;44.640;7.494;2023-05-14T06:38:46;12.60;99.90
39957;DHT22;48483;44.640;7.494;2023-05-14T06:41:12;12.60;99.90
39957;DHT22;48483;44.640;7.494;2023-05-14T06:43:39;12.60;99.90
39957;DHT22;48483;44.640;7.494;2023-05-14T06:46:07;12.60;99.90
39957;DHT22;48483;44.640;7.494;2023-05-14T06:48:33;12.60;99.90
39957;DHT22;48483;44.640;7.494;2023-05-14T06:51:00;12.60;99.90
39957;DHT22;48483;44.640;7.494;2023-05-14T06:53:28;12.60;99.90
39957;DHT22;48483;44.640;7.494;2023-05-14T06:55:55;12.60;99.90
39957;DHT22;48483;44.640;7.494;2023-05-14T06:58:21;12.60;99.90
39957;DHT22;48483;44.640;7.494;2023-05-14T07:00:48;12.60;99.90
39957;DHT22;48483;44.640;7.494;2023-05-14T07:03:15;12.60;99.90
39957;DHT22;48483;44.640;7.494;2023-05-14T07:05:42;12.60;99.90
39957;DHT22;48483;44.640;7.494;2023-05-14T07:08:11;12.60;99.90
39957;DHT22;48483;44.640;7.494;2023-05-14T07:10:37;12.60;99.90
39957;DHT22;48483;44.640;7.494;2023-05-14T07:13:04;12.60;99.90
39957;DHT22;48483;44.640;7.494;2023-05-14T07:15:31;12.60;99.90
39957;DHT22;48483;44.640;7.494;2023-05-14T07:17:57;12.70;99.90
39957;DHT22;48483;44.640;7.494;2023-05-14T07:20:25;12.70;99.90
39957;DHT22;48483;44.640;7.494;2023-05-14T07:22:52;12.70;99.90
39957;DHT22;48483;44.640;7.494;2023-05-14T07:25:19;12.70;99.90
39957;DHT22;48483;44.640;7.494;2023-05-14T07:27:45;12.70;99.90
39957;DHT22;48483;44.640;7.494;2023-05-14T07:30:12;12.70;99.90
39957;DHT22;48483;44.640;7.494;2023-05-14T07:32:39;12.80;99.90
39957;DHT22;48483;44.640;7.494;2023-05-14T07:35:06;12.80;99.90
39957;DHT22;48483;44.640;7.494;2023-05-14T07:37:34;12.70;99.90
39957;DHT22;48483;44.640;7.494;2023-05-14T07:40:01;12.70;99.90
39957;DHT22;48483;44.640;7.494;2023-05-14T07:42:27;12.80;99.90
39957;DHT22;48483;44.640;7.494;2023-05-14T07:44:54;12.80;99.90
39957;DHT22;48483;44.640;7.494;2023-05-14T07:47:20;12.80;99.90
39957;DHT22;48483;44.640;7.494;2023-05-14T07:49:47;12.80;99.90
39957;DHT22;48483;44.640;7.494;2023-05-14T07:52:13;12.80;99.90
39957;DHT22;48483;44.640;7.494;2023-05-14T07:54:41;12.80;99.90
39957;DHT22;48483;44.640;7.494;2023-05-14T07:57:08;12.80;99.90
39957;DHT22;48483;44.640;7.494;2023-05-14T07:59:34;12.80;99.90
39957;DHT22;48483;44.640;7.494;2023-05-14T08:02:01;12.80;99.90
39957;DHT22;48483;44.640;7.494;2023-05-14T08:04:27;12.90;99.90
39957;DHT22;48483;44.640;7.494;2023-05-14T08:06:54;12.90;99.90
39957;DHT22;48483;44.640;7.494;2023-05-14T08:09:21;12.90;99.90
39957;DHT22;48483;44.640;7.494;2023-05-14T08:11:49;12.90;99.90
39957;DHT22;48483;44.640;7.494;2023-05-14T08:14:15;13.00;99.90
39957;DHT22;48483;44.640;7.494;2023-05-14T08:16:42;13.00;99.90
39957;DHT22;48483;44.640;7.494;2023-05-14T08:19:08;12.90;99.90
39957;DHT22;48483;44.640;7.494;2023-05-14T08:21:35;13.00;99.90
39957;DHT22;48483;44.640;7.494;2023-05-14T08:24:01;13.00;99.90
39957;DHT22;48483;44.640;7.494;2023-05-14T08:26:28;13.00;99.90
39957;DHT22;48483;44.640;7.494;2023-05-14T08:28:56;13.00;99.90
39957;DHT22;48483;44.640;7.494;2023-05-14T08:31:22;13.00;99.90
39957;DHT22;48483;44.640;7.494;2023-05-14T08:33:49;13.00;99.90
39957;DHT22;48483;44.640;7.494;2023-05-14T08:36:15;13.00;99.90
39957;DHT22;48483;44.640;7.494;2023-05-14T08:38:42;13.10;99.90
39957;DHT22;48483;44.640;7.494;2023-05-14T08:41:12;13.10;99.90
39957;DHT22;48483;44.640;7.494;2023-05-14T08:43:43;13.20;99.90
39957;DHT22;48483;44.640;7.494;2023-05-14T08:46:13;13.30;99.90
39957;DHT22;48483;44.640;7.494;2023-05-14T08:48:42;13.30;99.90
39957;DHT22;48483;44.640;7.494;2023-05-14T08:51:08;13.40;99.90
39957;DHT22;48483;44.640;7.494;2023-05-14T08:53:35;13.50;99.90
39957;DHT22;48483;44.640;7.494;2023-05-14T08:56:04;13.60;99.90
39957;DHT22;48483;44.640;7.494;2023-05-14T08:58:32;13.70;99.90
39957;DHT22;48483;44.640;7.494;2023-05-14T09:00:58;13.80;99.90
39957;DHT22;48483;44.640;7.494;2023-05-14T09:03:26;13.90;99.90
39957;DHT22;48483;44.640;7.494;2023-05-14T09:05:54;13.90;99.90
39957;DHT22;48483;44.640;7.494;2023-05-14T09:08:21;14.00;99.90
39957;DHT22;48483;44.640;7.494;2023-05-14T09:10:47;14.00;99.90
39957;DHT22;48483;44.640;7.494;2023-05-14T09:13:14;14.10;99.90
39957;DHT22;48483;44.640;7.494;2023-05-14T09:15:40;14.20;99.90
39957;DHT22;48483;44.640;7.494;2023-05-14T09:18:07;14.40;99.90
39957;DHT22;48483;44.640;7.494;2023-05-14T09:20:35;14.60;99.90
39957;DHT22;48483;44.640;7.494;2023-05-14T09:23:02;14.60;99.90
39957;DHT22;48483;44.640;7.494;2023-05-14T09:25:30;14.50;99.90
39957;DHT22;48483;44.640;7.494;2023-05-14T09:27:57;14.50;99.90
39957;DHT22;48483;44.640;7.494;2023-05-14T09:30:24;14.60;99.90
39957;DHT22;48483;44.640;7.494;2023-05-14T09:32:53;14.80;99.90
39957;DHT22;48483;44.640;7.494;2023-05-14T09:35:21;14.80;99.90
39957;DHT22;48483;44.640;7.494;2023-05-14T09:37:50;14.70;99.90
39957;DHT22;48483;44.640;7.494;2023-05-14T09:40:18;14.70;99.90
39957;DHT22;48483;44.640;7.494;2023-05-14T09:42:45;14.80;99.90
39957;DHT22;48483;44.640;7.494;2023-05-14T09:45:11;14.80;99.90
39957;DHT22;48483;44.640;7.494;2023-05-14T09:47:38;14.80;99.90
39957;DHT22;48483;44.640;7.494;2023-05-14T09:50:06;14.80;99.90
39957;DHT22;48483;44.640;7.494;2023-05-14T09:52:33;14.70;99.90
39957;DHT22;48483;44.640;7.494;2023-05-14T09:55:01;14.80;99.90
39957;DHT22;48483;44.640;7.494;2023-05-14T09:57:28;14.80;99.90
39957;DHT22;48483;44.640;7.494;2023-05-14T09:59:54;14.80;99.90
39957;DHT22;48483;44.640;7.494;2023-05-14T10:02:23;14.70;99.90
39957;DHT22;48483;44.640;7.494;2023-05-14T10:04:53;14.80;99.90
39957;DHT22;48483;44.640;7.494;2023-05-14T10:07:22;14.80;99.90
39957;DHT22;48483;44.640;7.494;2023-05-14T10:09:53;14.90;99.90
39957;DHT22;48483;44.640;7.494;2023-05-14T10:12:24;14.90;99.90
39957;DHT22;48483;44.640;7.494;2023-05-14T10:14:54;14.90;99.90
39957;DHT22;48483;44.640;7.494;2023-05-14T10:17:24;15.00;99.90
39957;DHT22;48483;44.640;7.494;2023-05-14T10:19:53;15.10;99.90
39957;DHT22;48483;44.640;7.494;2023-05-14T10:22:23;15.20;99.90
39957;DHT22;48483;44.640;7.494;2023-05-14T10:24:51;15.10;99.90
39957;DHT22;48483;44.640;7.494;2023-05-14T10:27:19;15.20;99.90
39957;DHT22;48483;44.640;7.494;2023-05-14T10:29:50;15.20;99.90
39957;DHT22;48483;44.640;7.494;2023-05-14T10:32:20;15.20;99.90
39957;DHT22;48483;44.640;7.494;2023-05-14T10:34:47;15.20;99.90
39957;DHT22;48483;44.640;7.494;2023-05-14T10:37:15;15.40;99.90
39957;DHT22;48483;44.640;7.494;2023-05-14T10:39:44;15.60;99.90
39957;DHT22;48483;44.640;7.494;2023-05-14T10:42:11;15.70;99.90
39957;DHT22;48483;44.640;7.494;2023-05-14T10:44:46;15.80;99.90
39957;DHT22;48483;44.640;7.494;2023-05-14T10:47:14;15.90;99.90
39957;DHT22;48483;44.640;7.494;2023-05-14T10:49:43;15.90;99.90
39957;DHT22;48483;44.640;7.494;2023-05-14T10:52:11;15.90;99.90
39957;DHT22;48483;44.640;7.494;2023-05-14T10:54:38;15.90;99.90
39957;DHT22;48483;44.640;7.494;2023-05-14T10:57:10;16.10;99.90
39957;DHT22;48483;44.640;7.494;2023-05-14T10:59:40;16.20;99.90
39957;DHT22;48483;44.640;7.494;2023-05-14T11:02:24;16.30;99.90
39957;DHT22;48483;44.640;7.494;2023-05-14T11:04:58;16.30;99.90
39957;DHT22;48483;44.640;7.494;2023-05-14T11:07:28;16.30;99.90
39957;DHT22;48483;44.640;7.494;2023-05-14T11:10:03;16.30;99.90
39957;DHT22;48483;44.640;7.494;2023-05-14T11:12:30;16.40;99.90
39957;DHT22;48483;44.640;7.494;2023-05-14T11:14:58;16.40;99.90
39957;DHT22;48483;44.640;7.494;2023-05-14T11:17:27;16.40;99.90
39957;DHT22;48483;44.640;7.494;2023-05-14T11:19:54;16.40;99.90
39957;DHT22;48483;44.640;7.494;2023-05-14T11:22:22;16.50;99.90
39957;DHT22;48483;44.640;7.494;2023-05-14T11:24:49;16.50;99.90
39957;DHT22;48483;44.640;7.494;2023-05-14T11:27:16;16.50;99.90
39957;DHT22;48483;44.640;7.494;2023-05-14T11:29:43;16.70;99.90
39957;DHT22;48483;44.640;7.494;2023-05-14T11:32:12;16.80;99.90
39957;DHT22;48483;44.640;7.494;2023-05-14T11:34:40;16.80;99.90
39957;DHT22;48483;44.640;7.494;2023-05-14T11:37:08;16.70;99.90
39957;DHT22;48483;44.640;7.494;2023-05-14T11:39:35;16.90;99.90
39957;DHT22;48483;44.640;7.494;2023-05-14T11:42:09;16.90;99.90
39957;DHT22;48483;44.640;7.494;2023-05-14T11:44:37;17.00;99.90
39957;DHT22;48483;44.640;7.494;2023-05-14T11:47:05;17.10;99.90
39957;DHT22;48483;44.640;7.494;2023-05-14T11:49:31;17.20;99.90
39957;DHT22;48483;44.640;7.494;2023-05-14T11:52:03;17.20;99.90
39957;DHT22;48483;44.640;7.494;2023-05-14T11:54:31;17.20;99.90
39957;DHT22;48483;44.640;7.494;2023-05-14T11:57:00;17.20;99.90
39957;DHT22;48483;44.640;7.494;2023-05-14T11:59:29;17.00;99.90
39957;DHT22;48483;44.640;7.494;2023-05-14T12:01:57;17.00;99.90
39957;DHT22;48483;44.640;7.494;2023-05-14T12:04:24;17.20;99.90
39957;DHT22;48483;44.640;7.494;2023-05-14T12:06:51;17.30;99.90
39957;DHT22;48483;44.640;7.494;2023-05-14T12:09:20;17.40;99.90
39957;DHT22;48483;44.640;7.494;2023-05-14T12:11:48;17.50;99.90
39957;DHT22;48483;44.640;7.494;2023-05-14T12:14:17;17.30;99.90
39957;DHT22;48483;44.640;7.494;2023-05-14T12:16:44;17.40;99.90
39957;DHT22;48483;44.640;7.494;2023-05-14T12:19:14;17.50;99.90
39957;DHT22;48483;44.640;7.494;2023-05-14T12:21:42;17.60;99.90
39957;DHT22;48483;44.640;7.494;2023-05-14T12:24:09;17.70;99.90
39957;DHT22;48483;44.640;7.494;2023-05-14T12:26:39;17.60;99.90
39957;DHT22;48483;44.640;7.494;2023-05-14T12:29:05;17.50;99.90
39957;DHT22;48483;44.640;7.494;2023-05-14T12:31:33;17.50;99.90
39957;DHT22;48483;44.640;7.494;2023-05-14T12:34:00;17.40;99.90
39957;DHT22;48483;44.640;7.494;2023-05-14T12:36:27;17.50;99.90
39957;DHT22;48483;44.640;7.494;2023-05-14T12:38:58;17.50;99.90
39957;DHT22;48483;44.640;7.494;2023-05-14T12:41:25;17.50;99.90
39957;DHT22;48483;44.640;7.494;2023-05-14T12:43:53;17.50;99.90
39957;DHT22;48483;44.640;7.494;2023-05-14T12:46:20;17.50;99.90
39957;DHT22;48483;44.640;7.494;2023-05-14T12:48:47;17.50;99.90
39957;DHT22;48483;44.640;7.494;2023-05-14T12:51:13;17.60;99.90
39957;DHT22;48483;44.640;7.494;2023-05-14T12:53:40;17.70;99.90
39957;DHT22;48483;44.640;7.494;2023-05-14T12:56:07;17.90;99.90
39957;DHT22;48483;44.640;7.494;2023-05-14T12:58:33;18.10;99.90
39957;DHT22;48483;44.640;7.494;2023-05-14T13:01:01;18.00;99.90
39957;DHT22;48483;44.640;7.494;2023-05-14T13:03:28;17.90;99.90
39957;DHT22;48483;44.640;7.494;2023-05-14T13:05:55;17.80;99.90
39957;DHT22;48483;44.640;7.494;2023-05-14T13:08:22;17.90;99.90
39957;DHT22;48483;44.640;7.494;2023-05-14T13:10:51;17.90;99.90
39957;DHT22;48483;44.640;7.494;2023-05-14T13:13:18;17.70;99.90
39957;DHT22;48483;44.640;7.494;2023-05-14T13:15:45;17.80;99.90
39957;DHT22;48483;44.640;7.494;2023-05-14T13:18:13;17.80;99.90
39957;DHT22;48483;44.640;7.494;2023-05-14T13:20:40;17.90;99.90
39957;DHT22;48483;44.640;7.494;2023-05-14T13:23:07;17.80;99.90
39957;DHT22;48483;44.640;7.494;2023-05-14T13:25:34;17.80;99.90
39957;DHT22;48483;44.640;7.494;2023-05-14T13:28:00;17.70;99.90
39957;DHT22;48483;44.640;7.494;2023-05-14T13:30:27;17.70;99.90
39957;DHT22;48483;44.640;7.494;2023-05-14T13:32:54;17.80;99.90
39957;DHT22;48483;44.640;7.494;2023-05-14T13:35:21;17.80;99.90
39957;DHT22;48483;44.640;7.494;2023-05-14T13:37:48;17.70;99.90
39957;DHT22;48483;44.640;7.494;2023-05-14T13:40:14;17.80;99.90
39957;DHT22;48483;44.640;7.494;2023-05-14T13:42:41;17.80;99.90
39957;DHT22;48483;44.640;7.494;2023-05-14T13:45:09;17.80;99.90
39957;DHT22;48483;44.640;7.494;2023-05-14T13:47:36;17.70;99.90
39957;DHT22;48483;44.640;7.494;2023-05-14T13:50:03;17.70;99.90
39957;DHT22;48483;44.640;7.494;2023-05-14T13:52:32;17.70;99.90
39957;DHT22;48483;44.640;7.494;2023-05-14T13:54:58;17.80;99.90
39957;DHT22;48483;44.640;7.494;2023-05-14T13:57:25;17.80;99.90
39957;DHT22;48483;44.640;7.494;2023-05-14T13:59:52;17.90;99.90
39957;DHT22;48483;44.640;7.494;2023-05-14T14:02:18;17.90;99.90
39957;DHT22;48483;44.640;7.494;2023-05-14T14:04:45;18.00;99.90
39957;DHT22;48483;44.640;7.494;2023-05-14T14:07:11;18.00;99.90
39957;DHT22;48483;44.640;7.494;2023-05-14T14:09:39;17.90;99.90
39957;DHT22;48483;44.640;7.494;2023-05-14T14:12:06;17.90;99.90
39957;DHT22;48483;44.640;7.494;2023-05-14T14:14:34;17.80;99.90
39957;DHT22;48483;44.640;7.494;2023-05-14T14:17:00;17.90;99.90
39957;DHT22;48483;44.640;7.494;2023-05-14T14:19:27;17.80;99.90
39957;DHT22;48483;44.640;7.494;2023-05-14T14:21:53;17.80;99.90
39957;DHT22;48483;44.640;7.494;2023-05-14T14:24:20;17.90;99.90
39957;DHT22;48483;44.640;7.494;2023-05-14T14:26:48;17.90;99.90
39957;DHT22;48483;44.640;7.494;2023-05-14T14:29:14;17.90;99.90
39957;DHT22;48483;44.640;7.494;2023-05-14T14:31:41;18.00;99.90
39957;DHT22;48483;44.640;7.494;2023-05-14T14:34:08;18.00;99.90
39957;DHT22;48483;44.640;7.494;2023-05-14T14:36:35;18.00;99.90
39957;DHT22;48483;44.640;7.494;2023-05-14T14:39:01;18.10;99.90
39957;DHT22;48483;44.640;7.494;2023-05-14T14:41:28;18.10;99.90
39957;DHT22;48483;44.640;7.494;2023-05-14T14:43:56;18.20;99.90
39957;DHT22;48483;44.640;7.494;2023-05-14T14:46:22;18.20;99.90
39957;DHT22;48483;44.640;7.494;2023-05-14T14:48:49;18.20;99.90
39957;DHT22;48483;44.640;7.494;2023-05-14T14:51:15;18.10;99.90
39957;DHT22;48483;44.640;7.494;2023-05-14T14:53:42;18.10;99.90
39957;DHT22;48483;44.640;7.494;2023-05-14T14:56:08;18.20;99.90
39957;DHT22;48483;44.640;7.494;2023-05-14T14:58:35;18.10;99.90
39957;DHT22;48483;44.640;7.494;2023-05-14T15:01:03;18.10;99.90
39957;DHT22;48483;44.640;7.494;2023-05-14T15:03:30;18.20;99.90
39957;DHT22;48483;44.640;7.494;2023-05-14T15:05:56;18.20;99.90
39957;DHT22;48483;44.640;7.494;2023-05-14T15:08:24;18.10;99.90
39957;DHT22;48483;44.640;7.494;2023-05-14T15:10:54;18.20;99.90
39957;DHT22;48483;44.640;7.494;2023-05-14T15:13:21;18.20;99.90
39957;DHT22;48483;44.640;7.494;2023-05-14T15:15:49;18.30;99.90
39957;DHT22;48483;44.640;7.494;2023-05-14T15:18:18;18.20;99.90
39957;DHT22;48483;44.640;7.494;2023-05-14T15:20:45;18.30;99.90
39957;DHT22;48483;44.640;7.494;2023-05-14T15:23:11;18.20;99.90
39957;DHT22;48483;44.640;7.494;2023-05-14T15:25:38;18.20;99.90
39957;DHT22;48483;44.640;7.494;2023-05-14T15:28:05;18.30;99.90
39957;DHT22;48483;44.640;7.494;2023-05-14T15:30:32;18.30;99.90